Time;durP1;ratioP1;P1;durP2;ratioP2;P2;SDS_P1;SDS_P2;PMS_P1;PMS_P2;Temp;Humidity;BMP_temperature;BMP_pressure;BME280_temperature;BME280_humidity;BME280_pressure;Samples;Min_cycle;Max_cycle;Signal;HPM_P1;HPM_P2
2023/04/18 00:01:05;;;;;;;9.35;6.95;;;;;;;-148.88;93.18;77252.16;5032072;28;20017;-78
2023/04/18 00:03:30;;;;;;;8.50;4.13;;;;;;;-148.88;92.68;77262.31;5033352;28;20049;-79
2023/04/18 00:05:56;;;;;;;6.35;3.58;;;;;;;-148.88;93.04;77248.09;5032297;28;20444;-79
2023/04/18 00:08:22;;;;;;;6.47;3.92;;;;;;;-148.88;93.07;77276.53;5034871;28;20109;-79
2023/04/18 00:10:47;;;;;;;6.20;3.85;;;;;;;-148.88;93.55;77284.66;5032912;28;20053;-79
2023/04/18 00:13:12;;;;;;;6.72;4.43;;;;;;;-148.88;94.34;77284.66;5032526;28;20025;-79
2023/04/18 00:15:38;;;;;;;7.32;4.20;;;;;;;-148.88;93.05;77248.09;5036127;28;20033;-79
2023/04/18 00:18:04;;;;;;;7.18;4.05;;;;;;;-148.88;92.19;77258.25;5037810;28;20029;-79
2023/04/18 00:20:31;;;;;;;6.25;3.55;;;;;;;-148.88;91.68;77244.03;5039267;28;20057;-79
2023/04/18 00:22:56;;;;;;;7.55;3.50;;;;;;;-148.88;90.96;77223.72;5036652;28;20029;-79
2023/04/18 00:25:22;;;;;;;7.05;3.92;;;;;;;-148.88;90.21;77207.47;5036901;28;20084;-79
2023/04/18 00:27:47;;;;;;;6.50;5.60;;;;;;;-148.88;91.91;77239.97;5037168;28;20033;-79
2023/04/18 00:30:13;;;;;;;6.70;3.80;;;;;;;-148.88;91.92;77270.44;5038292;28;20029;-79
2023/04/18 00:32:38;;;;;;;6.75;3.53;;;;;;;-148.88;91.09;77231.84;5036694;28;20021;-79
2023/04/18 00:35:04;;;;;;;8.10;3.80;;;;;;;-148.88;91.45;77264.34;5032435;28;20018;-78
2023/04/18 00:37:30;;;;;;;6.50;3.50;;;;;;;-148.88;91.04;77250.13;5032294;28;20063;-79
2023/04/18 00:39:55;;;;;;;6.55;3.38;;;;;;;-148.88;89.63;77215.59;5032985;28;20030;-78
2023/04/18 00:42:21;;;;;;;5.40;2.97;;;;;;;-148.88;89.93;77256.22;5032830;28;20030;-78
2023/04/18 00:44:46;;;;;;;6.50;3.50;;;;;;;-148.88;90.79;77264.34;5032961;28;20022;-78
2023/04/18 00:47:12;;;;;;;5.60;3.08;;;;;;;-148.88;90.09;77237.94;5033272;28;20121;-78
2023/04/18 00:49:37;;;;;;;8.07;3.97;;;;;;;-148.88;89.69;77237.94;5037754;28;20054;-79
2023/04/18 00:52:02;;;;;;;6.47;3.65;;;;;;;-148.88;90.97;77272.47;5042566;28;20372;-79
2023/04/18 00:54:28;;;;;;;7.13;3.75;;;;;;;-148.88;90.97;77272.47;5040565;28;20472;-79
2023/04/18 00:56:54;;;;;;;6.13;3.40;;;;;;;-148.88;90.02;77268.41;5041939;28;20476;-79
2023/04/18 00:59:20;;;;;;;8.45;3.67;;;;;;;-148.88;89.86;77262.31;5041162;28;20085;-79
2023/04/18 01:01:46;;;;;;;6.05;3.92;;;;;;;-148.88;89.53;77242.00;5040226;28;20022;-79
2023/04/18 01:04:11;;;;;;;6.28;3.60;;;;;;;-148.88;89.87;77225.75;5040505;28;20048;-79
2023/04/18 01:06:37;;;;;;;8.05;3.95;;;;;;;-148.88;89.14;77217.63;5042841;28;20045;-79
2023/04/18 01:09:04;;;;;;;8.40;4.63;;;;;;;-148.88;89.37;77239.97;5041636;28;20029;-79
2023/04/18 01:11:30;;;;;;;7.25;3.95;;;;;;;-148.88;90.07;77272.47;5037062;28;20112;-78
2023/04/18 01:14:05;;;;;;;8.48;6.22;;;;;;;-148.88;90.28;77264.34;5034393;28;20168;-78
2023/04/18 01:16:32;;;;;;;7.03;3.55;;;;;;;-148.88;90.92;77270.44;5034806;28;20029;-78
2023/04/18 01:18:58;;;;;;;7.10;4.00;;;;;;;-148.88;91.60;77270.44;5036224;28;20036;-78
2023/04/18 01:21:23;;;;;;;8.43;4.20;;;;;;;-148.88;91.75;77276.53;5035245;28;20476;-78
2023/04/18 01:23:50;;;;;;;7.60;6.13;;;;;;;-148.88;90.74;77248.09;5036057;28;20074;-78
2023/04/18 01:26:15;;;;;;;6.75;4.00;;;;;;;-148.88;91.75;77274.50;5041554;28;20025;-79
2023/04/18 01:28:40;;;;;;;7.47;4.18;;;;;;;-148.88;93.14;77292.81;5041619;28;20160;-79
2023/04/18 01:31:05;;;;;;;8.48;3.90;;;;;;;-148.88;93.76;77284.66;5041400;28;20029;-79
2023/04/18 01:33:31;;;;;;;7.40;3.95;;;;;;;-148.88;93.05;77262.31;5041748;28;20040;-79
2023/04/18 01:35:56;;;;;;;8.93;4.30;;;;;;;-148.88;93.94;77280.59;5042077;28;20075;-79
2023/04/18 01:38:21;;;;;;;9.48;4.75;;;;;;;-148.88;94.00;77298.91;5040428;28;20511;-79
2023/04/18 01:40:48;;;;;;;8.68;4.03;;;;;;;-148.88;93.46;77270.44;5039994;28;20035;-79
2023/04/18 01:43:13;;;;;;;8.77;3.97;;;;;;;-148.88;95.06;77288.72;5040660;28;20036;-79
2023/04/18 01:45:38;;;;;;;10.70;4.95;;;;;;;-148.88;94.95;77300.94;5038859;28;20034;-79
2023/04/18 01:48:04;;;;;;;8.45;4.53;;;;;;;-148.88;95.05;77300.94;5036208;28;20025;-78
2023/04/18 01:50:29;;;;;;;8.63;4.70;;;;;;;-148.88;95.03;77292.81;5035685;28;20021;-78
2023/04/18 01:52:54;;;;;;;10.57;4.90;;;;;;;-148.88;95.06;77292.81;5035769;28;20133;-79
2023/04/18 01:55:20;;;;;;;9.90;5.18;;;;;;;-148.88;95.36;77292.81;5035935;28;20495;-79
2023/04/18 01:57:45;;;;;;;8.77;5.15;;;;;;;-148.88;95.93;77294.84;5034609;28;20032;-78
2023/04/18 02:00:11;;;;;;;9.48;4.93;;;;;;;-148.88;96.39;77305.00;5036555;28;20022;-79
2023/04/18 02:02:36;;;;;;;9.32;5.45;;;;;;;-148.88;95.84;77288.72;5040204;28;20025;-79
2023/04/18 02:05:02;;;;;;;9.88;4.57;;;;;;;-148.88;96.01;77302.97;5041117;28;20057;-79
2023/04/18 02:07:27;;;;;;;10.23;5.03;;;;;;;-148.88;96.62;77311.09;5040289;28;20079;-79
2023/04/18 02:09:52;;;;;;;10.20;4.90;;;;;;;-148.88;96.91;77313.13;5039355;28;20030;-79
2023/04/18 02:12:17;;;;;;;9.02;4.43;;;;;;;-148.88;97.23;77327.34;5040289;28;20049;-79
2023/04/18 02:14:43;;;;;;;8.60;4.57;;;;;;;-148.88;97.14;77329.38;5039508;28;20024;-79
2023/04/18 02:17:08;;;;;;;11.27;5.15;;;;;;;-148.88;98.00;77294.84;5039498;28;20029;-79
2023/04/18 02:19:33;;;;;;;10.00;4.93;;;;;;;-148.88;97.08;77311.09;5039440;28;20460;-79
2023/04/18 02:21:59;;;;;;;7.72;4.57;;;;;;;-148.88;97.84;77329.38;5040769;28;20021;-79
2023/04/18 02:24:24;;;;;;;7.78;4.78;;;;;;;-148.88;98.59;77337.50;5036187;28;20033;-78
2023/04/18 02:26:49;;;;;;;12.02;4.80;;;;;;;-148.88;98.37;77333.44;5033060;28;20049;-78
2023/04/18 02:29:14;;;;;;;8.32;4.32;;;;;;;-148.88;98.41;77343.59;5034462;28;20461;-78
2023/04/18 02:31:40;;;;;;;8.82;4.63;;;;;;;-148.88;98.72;77337.50;5033803;28;20123;-79
2023/04/18 02:34:06;;;;;;;9.60;4.82;;;;;;;-148.88;98.77;77341.56;5035035;28;20026;-79
2023/04/18 02:36:32;;;;;;;8.48;4.50;;;;;;;-148.88;99.28;77355.78;5040242;28;20029;-79
2023/04/18 02:38:57;;;;;;;8.50;4.70;;;;;;;-148.88;99.85;77363.91;5039646;28;20388;-79
2023/04/18 02:41:23;;;;;;;7.80;4.30;;;;;;;-148.88;98.37;77323.28;5039594;28;20096;-79
2023/04/18 02:43:48;;;;;;;10.00;5.30;;;;;;;-148.88;97.87;77337.50;5039611;28;20498;-79
2023/04/18 02:46:13;;;;;;;8.60;4.85;;;;;;;-148.88;97.68;77313.13;5039661;28;20032;-79
2023/04/18 02:48:39;;;;;;;8.63;4.70;;;;;;;-148.88;98.53;77351.72;5039237;28;20030;-79
2023/04/18 02:51:06;;;;;;;9.77;4.32;;;;;;;-148.88;99.97;77372.03;5040373;28;20021;-79
2023/04/18 02:53:32;;;;;;;9.43;4.80;;;;;;;-148.88;100.00;77382.22;5038848;28;20525;-79
2023/04/18 02:55:57;;;;;;;8.25;5.03;;;;;;;-148.88;100.00;77392.38;5039895;28;20025;-79
2023/04/18 02:58:22;;;;;;;8.60;4.70;;;;;;;-148.88;100.00;77388.31;5039777;28;20108;-79
2023/04/18 03:00:49;;;;;;;10.18;4.82;;;;;;;-148.88;99.79;77357.81;5037364;28;20114;-78
2023/04/18 03:03:15;;;;;;;11.48;5.35;;;;;;;-148.88;99.38;77333.44;5033753;28;20021;-78
2023/04/18 03:05:40;;;;;;;11.70;6.03;;;;;;;-148.88;100.00;77380.19;5033665;28;20136;-78
2023/04/18 03:08:06;;;;;;;10.82;5.47;;;;;;;-148.88;100.00;77394.41;5033845;28;20029;-78
2023/04/18 03:10:32;;;;;;;8.68;4.80;;;;;;;-148.88;100.00;77394.41;5037361;28;20025;-79
2023/04/18 03:12:57;;;;;;;8.93;4.68;;;;;;;-148.88;100.00;77382.22;5039000;28;20407;-79
2023/04/18 03:15:22;;;;;;;10.50;5.40;;;;;;;-148.88;100.00;77386.28;5039614;28;20013;-79
2023/04/18 03:17:48;;;;;;;9.80;4.78;;;;;;;-148.88;100.00;77394.41;5039184;28;20033;-79
2023/04/18 03:20:14;;;;;;;10.60;5.82;;;;;;;-148.88;100.00;77392.38;5040213;28;20029;-79
2023/04/18 03:22:39;;;;;;;9.68;4.88;;;;;;;-148.88;100.00;77402.53;5039602;28;20037;-79
2023/04/18 03:25:05;;;;;;;10.77;5.07;;;;;;;-148.88;100.00;77408.63;5038820;28;20472;-79
2023/04/18 03:27:31;;;;;;;11.45;5.07;;;;;;;-148.88;100.00;77402.53;5040708;28;20021;-79
2023/04/18 03:29:56;;;;;;;10.05;5.32;;;;;;;-148.88;100.00;77345.63;5038098;28;20381;-79
2023/04/18 03:32:21;;;;;;;11.65;5.43;;;;;;;-148.88;100.00;77400.50;5035001;28;20057;-78
2023/04/18 03:34:47;;;;;;;11.35;5.30;;;;;;;-148.88;100.00;77398.47;5037138;28;20022;-78
2023/04/18 03:37:13;;;;;;;9.75;5.15;;;;;;;-148.88;100.00;77374.09;5036986;28;20030;-77
2023/04/18 03:39:39;;;;;;;10.10;4.90;;;;;;;-148.88;100.00;77345.63;5032590;28;20152;-77
2023/04/18 03:42:04;;;;;;;9.52;5.10;;;;;;;-148.88;100.00;77351.72;5033457;28;20101;-78
2023/04/18 03:44:30;;;;;;;12.00;5.88;;;;;;;-148.88;100.00;77404.56;5033983;28;20053;-78
2023/04/18 03:46:56;;;;;;;9.77;5.50;;;;;;;-148.88;100.00;77412.69;5041163;28;20025;-78
2023/04/18 03:49:21;;;;;;;14.40;6.25;;;;;;;-148.88;100.00;77418.78;5041675;28;20094;-78
2023/04/18 03:51:46;;;;;;;17.52;8.02;;;;;;;-148.88;100.00;77406.59;5035877;28;20025;-78
2023/04/18 03:54:12;;;;;;;10.45;5.28;;;;;;;-148.88;100.00;77374.09;5036916;28;20025;-79
2023/04/18 03:56:39;;;;;;;15.95;6.70;;;;;;;-148.88;100.00;77384.25;5039104;28;20025;-78
2023/04/18 03:59:04;;;;;;;16.33;7.25;;;;;;;-148.88;100.00;77382.22;5036412;28;20029;-78
2023/04/18 04:01:29;;;;;;;13.68;6.80;;;;;;;-148.88;100.00;77370.00;5036625;28;20079;-78
2023/04/18 04:03:54;;;;;;;14.05;6.97;;;;;;;-148.88;100.00;77386.28;5036269;28;20049;-78
2023/04/18 04:06:20;;;;;;;14.18;7.15;;;;;;;-148.88;100.00;77382.22;5036099;28;20127;-79
2023/04/18 04:08:45;;;;;;;14.20;7.05;;;;;;;-148.88;100.00;77392.38;5035191;28;20117;-79
2023/04/18 04:11:11;;;;;;;16.42;7.00;;;;;;;-148.88;100.00;77386.28;5036005;28;20040;-78
2023/04/18 04:13:36;;;;;;;15.00;7.22;;;;;;;-148.88;100.00;77394.41;5035704;28;20049;-77
2023/04/18 04:16:01;;;;;;;17.55;8.18;;;;;;;-148.88;100.00;77406.59;5030950;28;20035;-78
2023/04/18 04:18:30;;;;;;;13.52;6.93;;;;;;;-148.88;100.00;77400.50;5031491;28;20049;-78
2023/04/18 04:20:56;;;;;;;13.82;7.18;;;;;;;-148.88;100.00;77418.78;5035038;28;20060;-80
2023/04/18 04:23:24;;;;;;;14.98;7.03;;;;;;;-148.88;100.00;77422.84;5040700;28;20025;-78
2023/04/18 04:25:52;;;;;;;14.80;8.27;;;;;;;-148.88;100.00;77426.91;5043589;28;20380;-79
2023/04/18 04:28:21;;;;;;;17.00;7.30;;;;;;;-148.88;100.00;77422.84;5043692;28;20040;-78
2023/04/18 04:30:50;;;;;;;17.15;8.57;;;;;;;-148.88;100.00;77435.03;5041831;28;20025;-78
2023/04/18 04:33:19;;;;;;;14.50;7.65;;;;;;;-148.88;100.00;77430.97;5040371;28;20051;-78
2023/04/18 04:35:48;;;;;;;15.75;7.60;;;;;;;-148.88;100.00;77428.94;5039132;28;20022;-78
2023/04/18 04:38:14;;;;;;;15.00;7.65;;;;;;;-148.88;100.00;77428.94;5040672;28;20055;-78
2023/04/18 04:40:40;;;;;;;14.77;7.43;;;;;;;-148.88;100.00;77424.88;5041669;28;20033;-79
2023/04/18 04:43:05;;;;;;;16.83;7.53;;;;;;;-148.88;100.00;77430.97;5042865;28;20036;-78
2023/04/18 04:45:31;;;;;;;17.30;8.50;;;;;;;-148.88;100.00;77435.03;5041157;28;20534;-78
2023/04/18 04:47:57;;;;;;;15.80;7.93;;;;;;;-148.88;100.00;77437.06;5040580;28;20021;-78
2023/04/18 04:50:22;;;;;;;17.13;8.30;;;;;;;-148.88;100.00;77439.09;5041114;28;20028;-78
2023/04/18 04:52:48;;;;;;;19.02;8.10;;;;;;;-148.88;100.00;77445.19;5039499;28;20179;-77
2023/04/18 04:55:13;;;;;;;17.88;7.30;;;;;;;-148.88;100.00;77447.22;5040405;28;20014;-78
2023/04/18 04:57:39;;;;;;;16.30;7.78;;;;;;;-148.88;100.00;77451.28;5042118;28;20480;-78
2023/04/18 05:00:06;;;;;;;18.00;7.80;;;;;;;-148.88;100.00;77455.38;5040955;28;20435;-78
2023/04/18 05:02:31;;;;;;;18.77;7.65;;;;;;;-148.88;100.00;77455.38;5042281;28;20056;-78
2023/04/18 05:04:56;;;;;;;16.70;7.97;;;;;;;-148.88;100.00;77408.63;5041265;28;20021;-78
2023/04/18 05:07:21;;;;;;;15.32;7.30;;;;;;;-148.88;100.00;77453.31;5041547;28;20037;-79
2023/04/18 05:09:47;;;;;;;17.90;6.85;;;;;;;-148.88;100.00;77461.47;5039365;28;20474;-78
2023/04/18 05:12:12;;;;;;;15.27;6.90;;;;;;;-148.88;100.00;77453.31;5040966;28;20052;-78
2023/04/18 05:14:37;;;;;;;17.02;7.03;;;;;;;-148.88;100.00;77455.38;5042062;28;20031;-78
2023/04/18 05:17:03;;;;;;;16.85;6.63;;;;;;;-148.88;100.00;77441.13;5041663;28;20021;-79
2023/04/18 05:19:28;;;;;;;16.90;7.25;;;;;;;-148.88;100.00;77439.09;5039341;28;20025;-77
2023/04/18 05:24:21;;;;;;;15.80;7.45;;;;;;;-148.88;100.00;77447.22;5065439;22;20061;-76
2023/04/18 05:26:46;;;;;;;19.23;7.88;;;;;;;-148.88;100.00;77455.38;5037501;28;20041;-76
2023/04/18 05:29:11;;;;;;;15.57;7.32;;;;;;;-148.88;100.00;77447.22;5038800;28;20113;-77
2023/04/18 05:31:36;;;;;;;19.88;8.75;;;;;;;-148.88;100.00;77443.16;5038887;28;20025;-75
2023/04/18 05:34:02;;;;;;;14.70;7.90;;;;;;;-148.88;100.00;77443.16;5037774;28;20028;-76
2023/04/18 05:36:27;;;;;;;20.20;8.25;;;;;;;-148.88;100.00;77449.25;5035810;28;20021;-76
2023/04/18 05:38:52;;;;;;;18.52;9.07;;;;;;;-148.88;100.00;77455.38;5035828;28;20480;-76
2023/04/18 05:41:18;;;;;;;18.52;9.35;;;;;;;-148.88;100.00;77443.16;5035595;28;20051;-76
2023/04/18 05:43:43;;;;;;;18.77;9.02;;;;;;;-148.88;100.00;77477.72;5035396;28;20018;-76
2023/04/18 05:46:08;;;;;;;18.60;7.95;;;;;;;-148.88;100.00;77475.69;5035542;28;20487;-76
2023/04/18 05:48:33;;;;;;;16.30;8.55;;;;;;;-148.88;100.00;77483.81;5034178;28;20119;-76
2023/04/18 05:50:59;;;;;;;22.17;9.80;;;;;;;-148.88;100.00;77506.16;5035384;28;20117;-76
2023/04/18 05:53:25;;;;;;;19.58;9.38;;;;;;;-148.88;100.00;77514.28;5034452;28;20025;-76
2023/04/18 05:55:50;;;;;;;18.15;8.63;;;;;;;-148.88;100.00;77508.19;5054824;28;20028;-76
2023/04/18 05:58:15;;;;;;;20.85;9.43;;;;;;;-148.88;100.00;77508.19;5055021;28;20024;-76
2023/04/18 06:00:41;;;;;;;17.13;8.73;;;;;;;-148.88;100.00;77498.03;5055073;28;20552;-76
2023/04/18 06:03:06;;;;;;;20.75;8.90;;;;;;;-148.88;100.00;77493.97;5055073;28;20025;-76
2023/04/18 06:05:32;;;;;;;19.92;9.98;;;;;;;-148.88;100.00;77498.03;5053531;28;20024;-76
2023/04/18 06:07:57;;;;;;;20.42;9.43;;;;;;;-148.88;100.00;77500.06;5053618;28;20029;-76
2023/04/18 06:10:22;;;;;;;19.73;9.32;;;;;;;-148.88;100.00;77487.88;5054967;28;20036;-76
2023/04/18 06:12:48;;;;;;;20.05;9.52;;;;;;;-148.88;100.00;77483.81;5055790;28;20024;-76
2023/04/18 06:15:13;;;;;;;20.48;9.38;;;;;;;-148.88;100.00;77483.81;5053885;28;20483;-76
2023/04/18 06:17:38;;;;;;;24.83;10.52;;;;;;;-148.88;100.00;77487.88;5055442;28;20025;-76
2023/04/18 06:20:05;;;;;;;24.00;9.00;;;;;;;-148.88;100.00;77477.72;5054890;28;20055;-76
2023/04/18 06:22:30;;;;;;;20.98;10.35;;;;;;;-148.88;100.00;77471.63;5054694;28;20062;-76
2023/04/18 06:24:56;;;;;;;19.00;9.10;;;;;;;-148.88;100.00;77493.97;5046476;28;20502;-76
2023/04/18 06:27:21;;;;;;;20.42;10.00;;;;;;;-148.88;100.00;77487.88;5034574;28;20036;-76
2023/04/18 06:29:46;;;;;;;20.98;9.02;;;;;;;-148.88;100.00;77483.81;5034681;28;20377;-76
2023/04/18 06:32:12;;;;;;;23.98;10.68;;;;;;;-148.88;100.00;77473.66;5034593;28;20025;-76
2023/04/18 06:34:37;;;;;;;20.42;9.98;;;;;;;-148.88;100.00;77471.63;5034153;28;20392;-76
2023/04/18 06:37:03;;;;;;;22.85;10.52;;;;;;;-148.88;100.00;77455.38;5034492;28;20021;-76
2023/04/18 06:39:29;;;;;;;18.95;9.27;;;;;;;-148.88;100.00;77453.31;5034542;28;20026;-76
2023/04/18 06:41:54;;;;;;;23.77;10.77;;;;;;;-148.88;100.00;77457.41;5034751;28;20025;-76
2023/04/18 06:44:19;;;;;;;21.45;10.73;;;;;;;-148.88;100.00;77469.59;5034427;28;20606;-77
2023/04/18 06:46:45;;;;;;;19.10;9.32;;;;;;;-148.88;100.00;77467.56;5032730;28;20444;-77
2023/04/18 06:49:10;;;;;;;22.83;10.05;;;;;;;-148.88;100.00;77394.41;5034355;28;20483;-76
2023/04/18 06:51:35;;;;;;;21.92;10.23;;;;;;;-148.88;100.00;77455.38;5034524;28;20055;-75
2023/04/18 06:54:01;;;;;;;21.27;9.35;;;;;;;-148.88;100.00;77475.69;5033998;28;20067;-75
2023/04/18 06:56:26;;;;;;;21.65;9.55;;;;;;;-148.88;100.00;77449.25;5034082;28;20029;-76
2023/04/18 06:58:51;;;;;;;24.00;10.35;;;;;;;-148.88;100.00;77451.28;5034328;28;20022;-76
2023/04/18 07:01:17;;;;;;;22.50;10.13;;;;;;;-148.88;100.00;77445.19;5034152;28;20021;-76
2023/04/18 07:03:43;;;;;;;26.13;11.35;;;;;;;-148.88;100.00;77451.28;5033822;28;20025;-76
2023/04/18 07:06:09;;;;;;;21.42;10.23;;;;;;;-148.88;100.00;77463.50;5033906;28;20079;-76
2023/04/18 07:08:34;;;;;;;25.92;11.60;;;;;;;-148.88;100.00;77483.81;5033835;28;20031;-75
2023/04/18 07:10:59;;;;;;;21.50;10.20;;;;;;;-148.88;100.00;77496.00;5032547;28;20403;-75
2023/04/18 07:13:25;;;;;;;23.17;10.65;;;;;;;-148.88;100.00;77481.78;5032479;28;20479;-76
2023/04/18 07:15:50;;;;;;;21.17;10.30;;;;;;;-148.88;100.00;77473.66;5033619;28;20025;-75
2023/04/18 07:18:18;;;;;;;22.27;10.82;;;;;;;-148.88;100.00;77459.44;5032360;28;20025;-76
2023/04/18 07:20:43;;;;;;;23.17;11.10;;;;;;;-148.88;100.00;77451.28;5033864;28;20025;-76
2023/04/18 07:23:11;;;;;;;20.00;10.60;;;;;;;-148.88;100.00;77426.91;5033483;28;20132;-76
2023/04/18 07:25:37;;;;;;;22.77;10.85;;;;;;;-148.88;100.00;77416.75;5033595;28;20030;-76
2023/04/18 07:28:02;;;;;;;21.75;10.77;;;;;;;-148.88;100.00;77441.13;5032708;28;20032;-75
2023/04/18 07:30:28;;;;;;;22.20;9.98;;;;;;;-148.88;100.00;77418.78;5035343;28;20116;-75
2023/04/18 07:32:53;;;;;;;25.98;11.60;;;;;;;-148.88;100.00;77435.03;5033393;28;20049;-76
2023/04/18 07:35:18;;;;;;;20.02;10.20;;;;;;;-148.88;100.00;77426.91;5033283;28;20037;-75
2023/04/18 07:37:44;;;;;;;23.75;17.98;;;;;;;-148.88;100.00;77418.78;5033364;28;20445;-75
2023/04/18 07:40:10;;;;;;;21.63;10.80;;;;;;;-148.88;100.00;77394.41;5033314;28;20493;-75
2023/04/18 07:42:35;;;;;;;21.30;10.70;;;;;;;-148.88;100.00;77345.63;5033663;28;20523;-76
2023/04/18 07:45:01;;;;;;;25.40;10.80;;;;;;;-148.88;100.00;77335.47;5033166;28;20092;-76
2023/04/18 07:47:27;;;;;;;20.98;10.65;;;;;;;-148.88;100.00;77327.34;5033449;28;20456;-76
2023/04/18 07:49:52;;;;;;;18.33;10.48;;;;;;;-148.88;100.00;77341.56;5031852;28;20021;-76
2023/04/18 07:52:17;;;;;;;20.95;10.73;;;;;;;-148.88;100.00;77282.63;5033323;28;20495;-76
2023/04/18 07:54:43;;;;;;;19.98;10.57;;;;;;;-148.88;100.00;77349.69;5033058;28;20121;-76
2023/04/18 07:57:09;;;;;;;22.35;11.27;;;;;;;-148.88;100.00;77372.03;5032248;28;20067;-76
2023/04/18 07:59:35;;;;;;;24.17;10.98;;;;;;;-148.88;100.00;77380.19;5033287;28;20025;-76
2023/04/18 08:02:00;;;;;;;23.98;11.18;;;;;;;-148.88;100.00;77370.00;5033037;28;20029;-76
2023/04/18 08:04:25;;;;;;;24.23;18.05;;;;;;;-148.88;100.00;77353.75;5033082;28;20391;-75
2023/04/18 08:06:50;;;;;;;27.95;10.75;;;;;;;-148.88;100.00;77363.91;5031479;28;20029;-75
2023/04/18 08:09:17;;;;;;;22.50;11.43;;;;;;;-148.88;100.00;77353.75;5031547;28;20159;-76
2023/04/18 08:11:43;;;;;;;24.58;17.25;;;;;;;-148.88;100.00;77355.78;5031554;28;20028;-76
2023/04/18 08:14:08;;;;;;;23.65;17.85;;;;;;;-148.88;100.00;77361.88;5032646;28;20025;-75
2023/04/18 08:16:33;;;;;;;22.45;10.98;;;;;;;-148.88;100.00;77361.88;5032762;28;20153;-76
2023/04/18 08:18:59;;;;;;;22.42;11.00;;;;;;;-148.88;100.00;77361.88;5033313;28;20029;-76
2023/04/18 08:21:25;;;;;;;19.33;10.68;;;;;;;-148.88;100.00;77361.88;5031372;28;20028;-76
2023/04/18 08:23:50;;;;;;;22.77;10.75;;;;;;;-148.88;100.00;77367.97;5031209;28;20037;-75
2023/04/18 08:26:16;;;;;;;20.08;10.82;;;;;;;-148.88;100.00;77361.88;5031357;28;20025;-76
2023/04/18 08:28:41;;;;;;;21.17;10.38;;;;;;;-148.88;100.00;77363.91;5032947;28;20064;-76
2023/04/18 08:31:10;;;;;;;20.35;11.48;;;;;;;-148.88;100.00;77357.81;5031288;28;20025;-76
2023/04/18 08:33:36;;;;;;;22.40;11.88;;;;;;;-148.88;100.00;77341.56;5032824;28;20026;-76
2023/04/18 08:36:02;;;;;;;23.50;11.55;;;;;;;-148.88;100.00;77333.44;5032598;28;20456;-76
2023/04/18 08:38:27;;;;;;;22.75;12.35;;;;;;;-148.88;100.00;77343.59;5032896;28;20076;-76
2023/04/18 08:40:53;;;;;;;20.88;11.43;;;;;;;-148.88;100.00;77365.94;5031472;28;20025;-75
2023/04/18 08:43:18;;;;;;;25.60;11.20;;;;;;;-148.88;100.00;77370.00;5032921;28;20481;-76
2023/04/18 08:45:44;;;;;;;22.33;10.70;;;;;;;-148.88;100.00;77363.91;5032353;28;20027;-76
2023/04/18 08:48:15;;;;;;;27.38;19.25;;;;;;;-148.88;100.00;77357.81;5032713;28;20522;-76
2023/04/18 08:50:41;;;;;;;24.17;12.45;;;;;;;-148.88;100.00;77361.88;5032681;28;20030;-76
2023/04/18 08:53:06;;;;;;;26.23;11.70;;;;;;;-148.88;100.00;77353.75;5032710;28;20033;-76
2023/04/18 08:55:34;;;;;;;20.23;11.05;;;;;;;-148.88;100.00;77345.63;5032346;28;20026;-75
2023/04/18 08:58:01;;;;;;;21.92;11.77;;;;;;;-148.88;100.00;77305.00;5032671;28;20041;-76
2023/04/18 09:00:28;;;;;;;20.92;11.23;;;;;;;-148.88;100.00;77325.31;5031108;28;20021;-76
2023/04/18 09:02:55;;;;;;;23.70;18.23;;;;;;;-148.88;100.00;77305.00;5033036;28;20353;-76
2023/04/18 09:05:22;;;;;;;19.65;10.77;;;;;;;-148.88;100.00;77305.00;5032274;28;20021;-76
2023/04/18 09:07:51;;;;;;;25.45;12.32;;;;;;;-148.88;100.00;77309.06;5032605;28;20033;-75
2023/04/18 09:10:32;;;;;;;19.17;11.38;;;;;;;-148.88;100.00;77286.69;5035707;28;20484;-75
2023/04/18 09:12:59;;;;;;;23.30;18.73;;;;;;;-148.88;100.00;77278.56;5036387;28;20033;-76
2023/04/18 09:15:27;;;;;;;23.25;11.32;;;;;;;-148.88;100.00;77268.41;5034706;28;20517;-75
2023/04/18 09:17:56;;;;;;;23.25;12.32;;;;;;;-148.88;100.00;77239.97;5036704;28;20026;-76
2023/04/18 09:20:33;;;;;;;18.95;11.38;;;;;;;-148.88;100.00;77207.47;5034854;28;20116;-76
2023/04/18 09:22:59;;;;;;;19.85;10.85;;;;;;;-148.88;100.00;77158.69;5034699;28;20032;-76
2023/04/18 09:25:33;;;;;;;21.67;17.63;;;;;;;-148.88;100.00;77124.16;5035739;28;20025;-76
2023/04/18 09:28:00;;;;;;;20.35;16.80;;;;;;;-148.88;99.33;77105.84;5035863;28;20495;-76
2023/04/18 09:30:40;;;;;;;19.65;16.38;;;;;;;-148.88;97.14;77124.16;5034415;28;20377;-75
2023/04/18 09:33:09;;;;;;;21.73;16.90;;;;;;;-148.88;98.77;77114.00;5035697;28;20040;-76
2023/04/18 09:35:38;;;;;;;17.73;10.85;;;;;;;-148.88;99.47;77130.25;5034290;28;20024;-76
2023/04/18 09:38:04;;;;;;;19.27;16.42;;;;;;;-148.88;100.00;77099.75;5035552;28;20400;-76
2023/04/18 09:40:30;;;;;;;20.55;16.10;;;;;;;-148.88;99.49;77099.75;5035516;28;20026;-75
2023/04/18 09:42:55;;;;;;;19.90;16.38;;;;;;;-148.88;97.37;77089.59;5034298;28;20032;-76
2023/04/18 09:45:21;;;;;;;20.15;15.82;;;;;;;-148.88;96.23;77069.28;5035490;28;20021;-76
2023/04/18 09:47:47;;;;;;;18.88;11.05;;;;;;;-148.88;97.54;77081.47;5035462;28;20036;-76
2023/04/18 09:50:12;;;;;;;16.38;10.75;;;;;;;-148.88;95.52;77073.34;5035381;28;20018;-76
2023/04/18 09:52:40;;;;;;;18.73;15.82;;;;;;;-148.88;96.08;77012.41;5035701;28;20056;-76
2023/04/18 09:55:10;;;;;;;17.20;15.27;;;;;;;-148.88;94.98;77014.44;5035401;28;20491;-76
2023/04/18 09:57:39;;;;;;;15.45;13.40;;;;;;;-148.88;92.67;76979.88;5035329;28;20403;-76
2023/04/18 10:00:26;;;;;;;17.83;14.88;;;;;;;-148.88;90.37;76935.19;5035423;28;20107;-76
2023/04/18 10:03:03;;;;;;;16.85;14.55;;;;;;;-148.88;91.53;76927.06;5035180;28;20032;-76
2023/04/18 10:05:33;;;;;;;14.98;13.23;;;;;;;-148.88;88.01;76933.16;5035555;28;20048;-76
2023/04/18 10:07:59;;;;;;;16.58;14.15;;;;;;;-148.88;88.86;76937.22;5035081;28;20476;-76
2023/04/18 10:10:25;;;;;;;18.10;13.70;;;;;;;-148.88;90.46;76953.47;5035082;28;20033;-76
2023/04/18 10:12:53;;;;;;;15.95;12.77;;;;;;;-148.88;89.86;76947.38;5033700;28;20059;-76
2023/04/18 10:15:21;;;;;;;14.98;12.95;;;;;;;-148.88;88.73;76923.00;5034921;28;20095;-76
2023/04/18 10:17:58;;;;;;;14.88;13.07;;;;;;;-148.88;87.79;76906.75;5034852;28;20026;-76
2023/04/18 10:20:28;;;;;;;16.02;12.90;;;;;;;-148.88;88.14;76890.50;5033829;28;20427;-76
2023/04/18 10:22:54;;;;;;;15.73;13.18;;;;;;;-148.88;86.06;76829.53;5035009;28;20423;-76
2023/04/18 10:25:38;;;;;;;15.23;12.35;;;;;;;-148.88;83.87;76782.81;5034531;28;20025;-76
2023/04/18 10:28:05;;;;;;;14.23;12.20;;;;;;;-148.88;83.97;76746.22;5034959;28;20025;-76
2023/04/18 10:30:39;;;;;;;14.48;12.50;;;;;;;-148.88;80.85;76723.88;5034781;28;20040;-75
2023/04/18 10:33:24;;;;;;;15.98;12.35;;;;;;;-148.88;82.29;76758.41;5033902;28;20021;-76
2023/04/18 10:36:00;;;;;;;14.75;12.43;;;;;;;-148.88;81.64;76768.59;5034569;28;20021;-76
2023/04/18 10:38:26;;;;;;;15.00;11.80;;;;;;;-148.88;80.90;76738.09;5034765;28;20029;-76
2023/04/18 10:40:51;;;;;;;14.70;12.20;;;;;;;-148.88;80.47;76703.56;5034489;28;20392;-76
2023/04/18 10:43:16;;;;;;;13.80;11.70;;;;;;;-148.88;79.24;76727.94;5034693;28;20028;-76
2023/04/18 10:45:42;;;;;;;14.70;11.30;;;;;;;-148.88;77.93;76713.72;5032942;28;20017;-76
2023/04/18 10:48:28;;;;;;;14.55;11.73;;;;;;;-148.88;80.31;76734.03;5034340;28;20033;-76
2023/04/18 10:51:12;;;;;;;13.27;11.45;;;;;;;-148.88;76.82;76736.06;5034245;28;20024;-75
2023/04/18 10:53:39;;;;;;;15.43;11.75;;;;;;;-148.88;80.40;76788.91;5034215;28;20025;-75
2023/04/18 10:56:06;;;;;;;12.80;10.80;;;;;;;-148.88;81.89;76837.66;5032779;28;20388;-75
2023/04/18 10:58:33;;;;;;;17.15;11.48;;;;;;;-148.88;85.20;76744.19;5034304;28;20026;-75
2023/04/18 11:01:00;;;;;;;15.15;11.45;;;;;;;-148.88;83.66;76626.38;5033970;28;20024;-76
2023/04/18 11:03:32;;;;;;;12.55;10.30;;;;;;;-148.88;77.04;76618.25;5034241;28;20052;-75